sensor_id;sensor_type;location;lat;lon;timestamp;P1;durP1;ratioP1;P2;durP2;ratioP2
20067;SDS011;10194;50.824;7.134;2023-02-18T00:01:26;146.03;;;90.77;;
20067;SDS011;10194;50.824;7.134;2023-02-18T00:03:54;147.87;;;96.23;;
20067;SDS011;10194;50.824;7.134;2023-02-18T00:06:23;150.63;;;97.63;;
20067;SDS011;10194;50.824;7.134;2023-02-18T00:08:56;143.80;;;88.53;;
20067;SDS011;10194;50.824;7.134;2023-02-18T00:11:25;144.53;;;89.67;;
20067;SDS011;10194;50.824;7.134;2023-02-18T00:13:53;142.30;;;87.00;;
20067;SDS011;10194;50.824;7.134;2023-02-18T00:16:22;142.83;;;85.60;;
20067;SDS011;10194;50.824;7.134;2023-02-18T00:18:49;143.77;;;86.03;;
20067;SDS011;10194;50.824;7.134;2023-02-18T00:21:16;146.73;;;90.40;;
20067;SDS011;10194;50.824;7.134;2023-02-18T00:23:42;145.57;;;88.47;;
20067;SDS011;10194;50.824;7.134;2023-02-18T00:26:10;146.67;;;90.53;;
20067;SDS011;10194;50.824;7.134;2023-02-18T00:28:38;144.13;;;90.93;;
20067;SDS011;10194;50.824;7.134;2023-02-18T00:31:09;148.97;;;89.70;;
20067;SDS011;10194;50.824;7.134;2023-02-18T00:33:41;144.47;;;88.80;;
20067;SDS011;10194;50.824;7.134;2023-02-18T00:36:08;144.40;;;91.40;;
20067;SDS011;10194;50.824;7.134;2023-02-18T00:38:38;143.77;;;89.53;;
20067;SDS011;10194;50.824;7.134;2023-02-18T00:41:11;142.63;;;86.10;;
20067;SDS011;10194;50.824;7.134;2023-02-18T00:43:37;143.17;;;89.27;;
20067;SDS011;10194;50.824;7.134;2023-02-18T00:46:03;146.33;;;88.90;;
20067;SDS011;10194;50.824;7.134;2023-02-18T00:48:30;143.17;;;89.50;;
20067;SDS011;10194;50.824;7.134;2023-02-18T00:50:56;147.20;;;95.13;;
20067;SDS011;10194;50.824;7.134;2023-02-18T00:53:22;150.10;;;95.60;;
20067;SDS011;10194;50.824;7.134;2023-02-18T00:56:01;146.37;;;91.23;;
20067;SDS011;10194;50.824;7.134;2023-02-18T00:59:04;148.80;;;100.97;;
20067;SDS011;10194;50.824;7.134;2023-02-18T01:01:45;152.90;;;106.73;;
20067;SDS011;10194;50.824;7.134;2023-02-18T01:04:11;147.90;;;96.53;;
20067;SDS011;10194;50.824;7.134;2023-02-18T01:06:37;158.20;;;114.10;;
20067;SDS011;10194;50.824;7.134;2023-02-18T01:09:12;158.87;;;112.70;;
20067;SDS011;10194;50.824;7.134;2023-02-18T01:11:38;155.20;;;110.97;;
20067;SDS011;10194;50.824;7.134;2023-02-18T01:14:04;150.90;;;102.00;;
20067;SDS011;10194;50.824;7.134;2023-02-18T01:16:30;152.20;;;103.60;;
20067;SDS011;10194;50.824;7.134;2023-02-18T01:18:56;148.57;;;98.27;;
20067;SDS011;10194;50.824;7.134;2023-02-18T01:21:22;154.10;;;101.50;;
20067;SDS011;10194;50.824;7.134;2023-02-18T01:23:48;150.07;;;100.97;;
20067;SDS011;10194;50.824;7.134;2023-02-18T01:28:57;148.60;;;99.53;;
20067;SDS011;10194;50.824;7.134;2023-02-18T01:31:23;146.90;;;92.60;;
20067;SDS011;10194;50.824;7.134;2023-02-18T01:33:49;144.57;;;91.97;;
20067;SDS011;10194;50.824;7.134;2023-02-18T01:36:17;144.27;;;89.80;;
20067;SDS011;10194;50.824;7.134;2023-02-18T01:38:43;146.73;;;95.63;;
20067;SDS011;10194;50.824;7.134;2023-02-18T01:41:09;145.33;;;91.93;;
20067;SDS011;10194;50.824;7.134;2023-02-18T01:43:35;141.80;;;87.50;;
20067;SDS011;10194;50.824;7.134;2023-02-18T01:46:06;142.47;;;88.33;;
20067;SDS011;10194;50.824;7.134;2023-02-18T01:48:36;142.43;;;89.90;;
20067;SDS011;10194;50.824;7.134;2023-02-18T01:53:43;142.00;;;88.33;;
20067;SDS011;10194;50.824;7.134;2023-02-18T01:57:08;144.03;;;93.93;;
20067;SDS011;10194;50.824;7.134;2023-02-18T01:59:14;153.57;;;102.47;;
20067;SDS011;10194;50.824;7.134;2023-02-18T02:01:49;145.17;;;95.43;;
20067;SDS011;10194;50.824;7.134;2023-02-18T02:04:15;143.57;;;88.20;;
20067;SDS011;10194;50.824;7.134;2023-02-18T02:06:41;143.50;;;88.80;;
20067;SDS011;10194;50.824;7.134;2023-02-18T02:09:08;139.67;;;85.00;;
20067;SDS011;10194;50.824;7.134;2023-02-18T02:26:46;153.30;;;108.83;;
20067;SDS011;10194;50.824;7.134;2023-02-18T02:32:34;146.17;;;96.53;;
20067;SDS011;10194;50.824;7.134;2023-02-18T02:35:20;143.30;;;91.63;;
20067;SDS011;10194;50.824;7.134;2023-02-18T02:37:59;143.20;;;87.73;;
20067;SDS011;10194;50.824;7.134;2023-02-18T02:40:56;140.13;;;84.33;;
20067;SDS011;10194;50.824;7.134;2023-02-18T02:46:19;139.40;;;82.97;;
20067;SDS011;10194;50.824;7.134;2023-02-18T02:52:27;143.53;;;84.93;;
20067;SDS011;10194;50.824;7.134;2023-02-18T02:54:57;139.13;;;82.70;;
20067;SDS011;10194;50.824;7.134;2023-02-18T02:59:50;135.87;;;75.63;;
20067;SDS011;10194;50.824;7.134;2023-02-18T03:08:40;137.53;;;77.23;;
20067;SDS011;10194;50.824;7.134;2023-02-18T03:11:22;138.33;;;77.60;;
20067;SDS011;10194;50.824;7.134;2023-02-18T03:17:01;137.77;;;76.10;;
20067;SDS011;10194;50.824;7.134;2023-02-18T03:19:41;137.53;;;78.23;;
20067;SDS011;10194;50.824;7.134;2023-02-18T03:22:17;137.97;;;77.37;;
20067;SDS011;10194;50.824;7.134;2023-02-18T03:24:52;136.40;;;78.50;;
20067;SDS011;10194;50.824;7.134;2023-02-18T03:27:31;135.27;;;76.37;;
20067;SDS011;10194;50.824;7.134;2023-02-18T03:32:57;143.77;;;77.43;;
20067;SDS011;10194;50.824;7.134;2023-02-18T03:35:28;134.20;;;74.13;;
20067;SDS011;10194;50.824;7.134;2023-02-18T03:38:14;137.60;;;74.63;;
20067;SDS011;10194;50.824;7.134;2023-02-18T03:40:54;135.33;;;75.50;;
20067;SDS011;10194;50.824;7.134;2023-02-18T03:43:20;138.97;;;75.80;;
20067;SDS011;10194;50.824;7.134;2023-02-18T03:45:46;134.63;;;74.23;;
20067;SDS011;10194;50.824;7.134;2023-02-18T03:48:11;138.23;;;75.83;;
20067;SDS011;10194;50.824;7.134;2023-02-18T03:50:37;134.67;;;75.27;;
20067;SDS011;10194;50.824;7.134;2023-02-18T03:53:03;133.77;;;72.93;;
20067;SDS011;10194;50.824;7.134;2023-02-18T03:55:29;133.67;;;73.30;;
20067;SDS011;10194;50.824;7.134;2023-02-18T03:57:55;132.53;;;73.80;;
20067;SDS011;10194;50.824;7.134;2023-02-18T04:00:20;134.50;;;75.00;;
20067;SDS011;10194;50.824;7.134;2023-02-18T04:02:46;132.63;;;74.23;;
20067;SDS011;10194;50.824;7.134;2023-02-18T04:05:12;134.17;;;75.47;;
20067;SDS011;10194;50.824;7.134;2023-02-18T04:07:38;134.00;;;75.23;;
20067;SDS011;10194;50.824;7.134;2023-02-18T04:10:04;139.93;;;76.30;;
20067;SDS011;10194;50.824;7.134;2023-02-18T04:12:32;135.83;;;77.27;;
20067;SDS011;10194;50.824;7.134;2023-02-18T04:14:58;134.13;;;75.47;;
20067;SDS011;10194;50.824;7.134;2023-02-18T04:17:23;134.13;;;76.17;;
20067;SDS011;10194;50.824;7.134;2023-02-18T04:19:49;134.07;;;76.30;;
20067;SDS011;10194;50.824;7.134;2023-02-18T04:22:15;133.50;;;76.70;;
20067;SDS011;10194;50.824;7.134;2023-02-18T04:24:41;135.17;;;79.07;;
20067;SDS011;10194;50.824;7.134;2023-02-18T04:27:07;136.43;;;77.60;;
20067;SDS011;10194;50.824;7.134;2023-02-18T04:29:32;133.23;;;76.47;;
20067;SDS011;10194;50.824;7.134;2023-02-18T04:31:58;134.07;;;77.67;;
20067;SDS011;10194;50.824;7.134;2023-02-18T04:34:24;134.47;;;79.57;;
20067;SDS011;10194;50.824;7.134;2023-02-18T04:36:50;134.80;;;78.67;;
20067;SDS011;10194;50.824;7.134;2023-02-18T04:39:16;135.27;;;79.17;;
20067;SDS011;10194;50.824;7.134;2023-02-18T04:41:41;136.53;;;81.37;;
20067;SDS011;10194;50.824;7.134;2023-02-18T04:44:07;136.90;;;81.07;;
20067;SDS011;10194;50.824;7.134;2023-02-18T04:46:33;139.00;;;84.43;;
20067;SDS011;10194;50.824;7.134;2023-02-18T04:48:59;140.60;;;86.53;;
20067;SDS011;10194;50.824;7.134;2023-02-18T04:51:25;138.63;;;84.40;;
20067;SDS011;10194;50.824;7.134;2023-02-18T04:53:51;137.00;;;82.87;;
20067;SDS011;10194;50.824;7.134;2023-02-18T04:56:16;138.33;;;84.80;;
20067;SDS011;10194;50.824;7.134;2023-02-18T04:58:42;137.97;;;84.67;;
20067;SDS011;10194;50.824;7.134;2023-02-18T05:01:08;139.83;;;87.73;;
20067;SDS011;10194;50.824;7.134;2023-02-18T05:03:35;139.97;;;88.70;;
20067;SDS011;10194;50.824;7.134;2023-02-18T05:06:00;139.57;;;87.00;;
20067;SDS011;10194;50.824;7.134;2023-02-18T05:08:27;135.20;;;81.10;;
20067;SDS011;10194;50.824;7.134;2023-02-18T05:10:53;137.30;;;83.23;;
20067;SDS011;10194;50.824;7.134;2023-02-18T05:13:18;136.43;;;80.83;;
20067;SDS011;10194;50.824;7.134;2023-02-18T05:15:46;136.73;;;83.50;;
20067;SDS011;10194;50.824;7.134;2023-02-18T05:18:13;143.77;;;89.23;;
20067;SDS011;10194;50.824;7.134;2023-02-18T05:20:38;138.03;;;84.47;;
20067;SDS011;10194;50.824;7.134;2023-02-18T05:23:04;140.90;;;89.10;;
20067;SDS011;10194;50.824;7.134;2023-02-18T05:25:30;139.43;;;85.40;;
20067;SDS011;10194;50.824;7.134;2023-02-18T05:27:56;138.33;;;85.80;;
20067;SDS011;10194;50.824;7.134;2023-02-18T05:30:21;136.87;;;82.50;;
20067;SDS011;10194;50.824;7.134;2023-02-18T05:32:47;136.10;;;81.60;;
20067;SDS011;10194;50.824;7.134;2023-02-18T05:35:13;138.47;;;84.10;;
20067;SDS011;10194;50.824;7.134;2023-02-18T05:37:39;137.93;;;84.53;;
20067;SDS011;10194;50.824;7.134;2023-02-18T05:40:05;144.27;;;87.57;;
20067;SDS011;10194;50.824;7.134;2023-02-18T05:42:31;141.90;;;91.63;;
20067;SDS011;10194;50.824;7.134;2023-02-18T05:44:57;139.13;;;87.17;;
20067;SDS011;10194;50.824;7.134;2023-02-18T05:47:23;139.20;;;88.50;;
20067;SDS011;10194;50.824;7.134;2023-02-18T05:49:49;139.23;;;86.67;;
20067;SDS011;10194;50.824;7.134;2023-02-18T05:52:15;141.23;;;92.00;;
20067;SDS011;10194;50.824;7.134;2023-02-18T05:54:41;142.07;;;94.00;;
20067;SDS011;10194;50.824;7.134;2023-02-18T05:57:09;143.13;;;97.77;;
20067;SDS011;10194;50.824;7.134;2023-02-18T05:59:37;139.53;;;89.17;;
20067;SDS011;10194;50.824;7.134;2023-02-18T06:02:02;138.00;;;87.47;;
20067;SDS011;10194;50.824;7.134;2023-02-18T06:04:28;140.63;;;91.50;;
20067;SDS011;10194;50.824;7.134;2023-02-18T06:06:54;142.07;;;92.77;;
20067;SDS011;10194;50.824;7.134;2023-02-18T06:09:20;142.60;;;93.13;;
20067;SDS011;10194;50.824;7.134;2023-02-18T06:11:46;143.80;;;97.30;;
20067;SDS011;10194;50.824;7.134;2023-02-18T06:14:11;142.23;;;95.50;;
20067;SDS011;10194;50.824;7.134;2023-02-18T06:16:37;143.80;;;98.17;;
20067;SDS011;10194;50.824;7.134;2023-02-18T06:19:03;148.83;;;103.43;;
20067;SDS011;10194;50.824;7.134;2023-02-18T06:21:29;147.67;;;101.53;;
20067;SDS011;10194;50.824;7.134;2023-02-18T06:23:54;147.83;;;102.03;;
20067;SDS011;10194;50.824;7.134;2023-02-18T06:26:20;144.67;;;100.27;;
20067;SDS011;10194;50.824;7.134;2023-02-18T06:28:46;143.53;;;98.03;;
20067;SDS011;10194;50.824;7.134;2023-02-18T06:31:12;145.33;;;99.53;;
20067;SDS011;10194;50.824;7.134;2023-02-18T06:33:38;148.20;;;101.13;;
20067;SDS011;10194;50.824;7.134;2023-02-18T06:36:05;143.57;;;98.33;;
20067;SDS011;10194;50.824;7.134;2023-02-18T06:38:33;144.43;;;99.90;;
20067;SDS011;10194;50.824;7.134;2023-02-18T06:41:00;145.07;;;97.43;;
20067;SDS011;10194;50.824;7.134;2023-02-18T06:43:26;146.60;;;101.23;;
20067;SDS011;10194;50.824;7.134;2023-02-18T06:45:52;142.47;;;95.13;;
20067;SDS011;10194;50.824;7.134;2023-02-18T06:48:17;140.60;;;91.57;;
20067;SDS011;10194;50.824;7.134;2023-02-18T06:50:43;140.70;;;88.83;;
20067;SDS011;10194;50.824;7.134;2023-02-18T06:53:09;141.30;;;92.80;;
20067;SDS011;10194;50.824;7.134;2023-02-18T06:55:36;145.87;;;97.57;;
20067;SDS011;10194;50.824;7.134;2023-02-18T06:58:03;149.17;;;107.77;;
20067;SDS011;10194;50.824;7.134;2023-02-18T07:00:29;150.10;;;106.73;;
20067;SDS011;10194;50.824;7.134;2023-02-18T07:02:55;149.10;;;107.27;;
20067;SDS011;10194;50.824;7.134;2023-02-18T07:05:21;145.70;;;100.60;;
20067;SDS011;10194;50.824;7.134;2023-02-18T07:07:47;146.73;;;102.80;;
20067;SDS011;10194;50.824;7.134;2023-02-18T07:10:13;159.63;;;113.83;;
20067;SDS011;10194;50.824;7.134;2023-02-18T07:12:38;151.33;;;109.73;;
20067;SDS011;10194;50.824;7.134;2023-02-18T07:15:04;159.10;;;119.93;;
20067;SDS011;10194;50.824;7.134;2023-02-18T07:17:30;153.17;;;112.93;;
20067;SDS011;10194;50.824;7.134;2023-02-18T07:19:56;151.50;;;110.03;;
20067;SDS011;10194;50.824;7.134;2023-02-18T07:22:21;146.03;;;102.00;;
20067;SDS011;10194;50.824;7.134;2023-02-18T07:24:51;146.37;;;100.17;;
20067;SDS011;10194;50.824;7.134;2023-02-18T07:27:18;145.57;;;99.17;;
20067;SDS011;10194;50.824;7.134;2023-02-18T07:29:45;148.60;;;106.07;;
20067;SDS011;10194;50.824;7.134;2023-02-18T07:32:11;150.40;;;109.80;;
20067;SDS011;10194;50.824;7.134;2023-02-18T07:34:38;153.13;;;112.10;;
20067;SDS011;10194;50.824;7.134;2023-02-18T07:37:04;150.67;;;107.07;;
20067;SDS011;10194;50.824;7.134;2023-02-18T07:39:40;152.93;;;109.73;;
20067;SDS011;10194;50.824;7.134;2023-02-18T07:42:07;156.20;;;118.50;;
20067;SDS011;10194;50.824;7.134;2023-02-18T07:44:34;157.70;;;116.37;;
20067;SDS011;10194;50.824;7.134;2023-02-18T07:47:01;158.03;;;118.40;;
20067;SDS011;10194;50.824;7.134;2023-02-18T07:49:27;156.67;;;116.03;;
20067;SDS011;10194;50.824;7.134;2023-02-18T07:51:53;158.37;;;118.23;;
20067;SDS011;10194;50.824;7.134;2023-02-18T07:54:19;159.87;;;122.23;;
20067;SDS011;10194;50.824;7.134;2023-02-18T07:56:45;155.87;;;114.33;;
20067;SDS011;10194;50.824;7.134;2023-02-18T07:59:11;153.57;;;107.53;;
20067;SDS011;10194;50.824;7.134;2023-02-18T08:01:37;152.00;;;110.60;;
20067;SDS011;10194;50.824;7.134;2023-02-18T08:04:04;154.47;;;114.57;;
20067;SDS011;10194;50.824;7.134;2023-02-18T08:06:34;151.07;;;108.37;;
20067;SDS011;10194;50.824;7.134;2023-02-18T08:09:04;152.53;;;111.63;;
20067;SDS011;10194;50.824;7.134;2023-02-18T08:11:31;154.60;;;114.43;;
20067;SDS011;10194;50.824;7.134;2023-02-18T08:13:58;153.73;;;111.57;;
20067;SDS011;10194;50.824;7.134;2023-02-18T08:16:24;150.90;;;108.97;;
20067;SDS011;10194;50.824;7.134;2023-02-18T08:18:50;157.27;;;109.47;;
20067;SDS011;10194;50.824;7.134;2023-02-18T08:21:18;157.07;;;116.73;;
20067;SDS011;10194;50.824;7.134;2023-02-18T08:23:46;161.13;;;119.80;;
20067;SDS011;10194;50.824;7.134;2023-02-18T08:26:12;158.73;;;121.33;;
20067;SDS011;10194;50.824;7.134;2023-02-18T08:28:38;161.37;;;125.70;;
20067;SDS011;10194;50.824;7.134;2023-02-18T08:31:04;165.07;;;134.90;;
20067;SDS011;10194;50.824;7.134;2023-02-18T08:33:31;165.80;;;135.90;;
20067;SDS011;10194;50.824;7.134;2023-02-18T08:35:57;168.10;;;138.37;;
20067;SDS011;10194;50.824;7.134;2023-02-18T08:38:23;166.37;;;140.03;;
20067;SDS011;10194;50.824;7.134;2023-02-18T08:40:49;171.27;;;145.60;;
20067;SDS011;10194;50.824;7.134;2023-02-18T08:43:25;170.90;;;145.07;;
20067;SDS011;10194;50.824;7.134;2023-02-18T08:45:51;174.07;;;145.87;;
20067;SDS011;10194;50.824;7.134;2023-02-18T08:48:17;171.80;;;143.00;;
20067;SDS011;10194;50.824;7.134;2023-02-18T08:50:42;172.90;;;146.07;;
20067;SDS011;10194;50.824;7.134;2023-02-18T08:53:08;171.53;;;145.37;;
20067;SDS011;10194;50.824;7.134;2023-02-18T08:55:34;166.07;;;134.47;;
20067;SDS011;10194;50.824;7.134;2023-02-18T08:58:03;172.37;;;143.53;;
20067;SDS011;10194;50.824;7.134;2023-02-18T09:00:30;173.87;;;147.93;;
20067;SDS011;10194;50.824;7.134;2023-02-18T09:02:56;178.93;;;156.53;;
20067;SDS011;10194;50.824;7.134;2023-02-18T09:05:21;175.13;;;148.40;;
20067;SDS011;10194;50.824;7.134;2023-02-18T09:07:47;173.37;;;149.90;;
20067;SDS011;10194;50.824;7.134;2023-02-18T09:10:13;186.70;;;161.00;;
20067;SDS011;10194;50.824;7.134;2023-02-18T09:12:40;180.10;;;159.50;;
20067;SDS011;10194;50.824;7.134;2023-02-18T09:15:06;173.20;;;149.77;;
20067;SDS011;10194;50.824;7.134;2023-02-18T09:17:33;169.67;;;143.17;;
20067;SDS011;10194;50.824;7.134;2023-02-18T09:19:58;171.77;;;141.23;;
20067;SDS011;10194;50.824;7.134;2023-02-18T09:22:24;176.40;;;151.10;;
20067;SDS011;10194;50.824;7.134;2023-02-18T09:24:50;180.53;;;150.70;;
20067;SDS011;10194;50.824;7.134;2023-02-18T09:27:16;171.27;;;141.67;;
20067;SDS011;10194;50.824;7.134;2023-02-18T09:29:42;174.83;;;150.67;;
20067;SDS011;10194;50.824;7.134;2023-02-18T09:32:08;170.27;;;141.73;;
20067;SDS011;10194;50.824;7.134;2023-02-18T09:34:36;169.83;;;138.20;;
20067;SDS011;10194;50.824;7.134;2023-02-18T09:37:02;166.37;;;133.67;;
20067;SDS011;10194;50.824;7.134;2023-02-18T09:39:28;174.03;;;144.50;;
20067;SDS011;10194;50.824;7.134;2023-02-18T09:41:58;170.00;;;138.00;;
20067;SDS011;10194;50.824;7.134;2023-02-18T09:44:29;162.30;;;126.00;;
20067;SDS011;10194;50.824;7.134;2023-02-18T09:49:58;170.73;;;133.90;;
20067;SDS011;10194;50.824;7.134;2023-02-18T09:52:33;171.70;;;141.83;;
20067;SDS011;10194;50.824;7.134;2023-02-18T09:55:24;166.43;;;129.60;;
20067;SDS011;10194;50.824;7.134;2023-02-18T09:58:12;170.07;;;138.93;;
20067;SDS011;10194;50.824;7.134;2023-02-18T10:00:44;171.40;;;136.47;;
20067;SDS011;10194;50.824;7.134;2023-02-18T10:03:21;165.37;;;124.47;;
20067;SDS011;10194;50.824;7.134;2023-02-18T10:05:57;165.30;;;130.00;;
20067;SDS011;10194;50.824;7.134;2023-02-18T10:08:28;168.30;;;134.70;;
20067;SDS011;10194;50.824;7.134;2023-02-18T10:10:59;165.80;;;126.77;;
20067;SDS011;10194;50.824;7.134;2023-02-18T10:13:27;167.93;;;127.23;;
20067;SDS011;10194;50.824;7.134;2023-02-18T10:15:56;170.87;;;135.17;;
20067;SDS011;10194;50.824;7.134;2023-02-18T10:18:26;173.63;;;144.87;;
20067;SDS011;10194;50.824;7.134;2023-02-18T10:21:03;172.87;;;142.17;;
20067;SDS011;10194;50.824;7.134;2023-02-18T10:24:01;177.10;;;147.33;;
20067;SDS011;10194;50.824;7.134;2023-02-18T10:26:54;185.20;;;162.27;;
20067;SDS011;10194;50.824;7.134;2023-02-18T10:29:20;171.37;;;142.23;;
20067;SDS011;10194;50.824;7.134;2023-02-18T10:34:41;178.40;;;139.87;;
20067;SDS011;10194;50.824;7.134;2023-02-18T10:50:51;171.70;;;137.37;;
20067;SDS011;10194;50.824;7.134;2023-02-18T10:55:44;179.43;;;148.53;;
20067;SDS011;10194;50.824;7.134;2023-02-18T11:01:18;180.90;;;155.93;;
20067;SDS011;10194;50.824;7.134;2023-02-18T11:04:04;174.60;;;140.33;;
20067;SDS011;10194;50.824;7.134;2023-02-18T11:06:41;174.60;;;147.77;;
20067;SDS011;10194;50.824;7.134;2023-02-18T11:09:22;187.07;;;151.20;;
20067;SDS011;10194;50.824;7.134;2023-02-18T11:14:50;174.80;;;147.20;;
20067;SDS011;10194;50.824;7.134;2023-02-18T11:17:51;179.43;;;153.67;;
20067;SDS011;10194;50.824;7.134;2023-02-18T11:25:36;175.73;;;147.73;;
20067;SDS011;10194;50.824;7.134;2023-02-18T11:28:05;175.20;;;144.27;;
20067;SDS011;10194;50.824;7.134;2023-02-18T11:30:53;173.80;;;143.53;;
20067;SDS011;10194;50.824;7.134;2023-02-18T11:33:31;174.90;;;147.17;;
20067;SDS011;10194;50.824;7.134;2023-02-18T11:38:43;170.53;;;144.90;;
20067;SDS011;10194;50.824;7.134;2023-02-18T11:41:33;168.73;;;138.23;;
20067;SDS011;10194;50.824;7.134;2023-02-18T11:44:03;179.47;;;159.10;;
20067;SDS011;10194;50.824;7.134;2023-02-18T11:49:39;171.13;;;141.13;;
20067;SDS011;10194;50.824;7.134;2023-02-18T11:52:22;171.37;;;144.60;;
20067;SDS011;10194;50.824;7.134;2023-02-18T11:57:49;172.50;;;148.70;;
20067;SDS011;10194;50.824;7.134;2023-02-18T12:00:36;172.27;;;147.20;;
20067;SDS011;10194;50.824;7.134;2023-02-18T12:06:00;179.33;;;154.17;;
20067;SDS011;10194;50.824;7.134;2023-02-18T12:08:31;172.60;;;144.03;;
20067;SDS011;10194;50.824;7.134;2023-02-18T12:11:11;171.43;;;146.00;;
20067;SDS011;10194;50.824;7.134;2023-02-18T12:13:55;171.10;;;145.67;;
20067;SDS011;10194;50.824;7.134;2023-02-18T12:16:32;167.90;;;139.50;;
20067;SDS011;10194;50.824;7.134;2023-02-18T12:22:09;171.90;;;144.63;;
20067;SDS011;10194;50.824;7.134;2023-02-18T12:25:23;181.47;;;161.77;;
20067;SDS011;10194;50.824;7.134;2023-02-18T12:36:43;188.10;;;167.80;;
20067;SDS011;10194;50.824;7.134;2023-02-18T12:40:02;194.50;;;173.90;;
20067;SDS011;10194;50.824;7.134;2023-02-18T12:43:06;191.33;;;171.13;;
20067;SDS011;10194;50.824;7.134;2023-02-18T12:48:41;185.27;;;165.37;;
20067;SDS011;10194;50.824;7.134;2023-02-18T12:52:08;188.30;;;168.43;;
20067;SDS011;10194;50.824;7.134;2023-02-18T13:00:48;173.47;;;149.77;;
20067;SDS011;10194;50.824;7.134;2023-02-18T13:09:58;191.37;;;171.00;;
20067;SDS011;10194;50.824;7.134;2023-02-18T13:15:51;182.60;;;162.93;;
20067;SDS011;10194;50.824;7.134;2023-02-18T13:18:33;180.27;;;160.50;;
20067;SDS011;10194;50.824;7.134;2023-02-18T13:21:07;175.77;;;155.97;;
20067;SDS011;10194;50.824;7.134;2023-02-18T13:26:35;173.13;;;149.57;;
20067;SDS011;10194;50.824;7.134;2023-02-18T13:34:49;174.83;;;150.73;;
20067;SDS011;10194;50.824;7.134;2023-02-18T13:40:12;174.33;;;141.83;;
20067;SDS011;10194;50.824;7.134;2023-02-18T13:42:50;174.53;;;152.63;;
20067;SDS011;10194;50.824;7.134;2023-02-18T13:45:35;178.40;;;156.63;;
20067;SDS011;10194;50.824;7.134;2023-02-18T13:48:05;176.57;;;153.80;;
20067;SDS011;10194;50.824;7.134;2023-02-18T13:50:51;172.83;;;151.97;;
20067;SDS011;10194;50.824;7.134;2023-02-18T13:53:19;183.80;;;163.90;;
20067;SDS011;10194;50.824;7.134;2023-02-18T14:11:56;177.43;;;153.60;;
20067;SDS011;10194;50.824;7.134;2023-02-18T14:14:50;190.50;;;170.40;;
20067;SDS011;10194;50.824;7.134;2023-02-18T14:19:42;178.37;;;158.87;;
20067;SDS011;10194;50.824;7.134;2023-02-18T14:28:01;184.73;;;164.77;;
20067;SDS011;10194;50.824;7.134;2023-02-18T14:31:15;190.83;;;170.63;;
20067;SDS011;10194;50.824;7.134;2023-02-18T14:36:36;183.37;;;163.57;;
20067;SDS011;10194;50.824;7.134;2023-02-18T14:48:34;184.70;;;164.90;;
20067;SDS011;10194;50.824;7.134;2023-02-18T14:51:27;176.20;;;156.37;;
20067;SDS011;10194;50.824;7.134;2023-02-18T14:53:56;187.47;;;167.47;;
20067;SDS011;10194;50.824;7.134;2023-02-18T14:56:30;183.03;;;163.13;;
20067;SDS011;10194;50.824;7.134;2023-02-18T14:59:02;168.97;;;145.90;;
20067;SDS011;10194;50.824;7.134;2023-02-18T15:01:30;174.03;;;151.20;;
20067;SDS011;10194;50.824;7.134;2023-02-18T15:03:59;170.87;;;148.73;;
20067;SDS011;10194;50.824;7.134;2023-02-18T15:06:31;173.53;;;149.47;;
20067;SDS011;10194;50.824;7.134;2023-02-18T15:09:23;183.17;;;162.70;;
20067;SDS011;10194;50.824;7.134;2023-02-18T15:11:54;176.50;;;154.60;;
20067;SDS011;10194;50.824;7.134;2023-02-18T15:14:34;171.30;;;150.43;;
20067;SDS011;10194;50.824;7.134;2023-02-18T15:17:11;177.20;;;157.43;;
20067;SDS011;10194;50.824;7.134;2023-02-18T15:19:43;174.17;;;138.93;;
20067;SDS011;10194;50.824;7.134;2023-02-18T15:22:19;165.53;;;134.70;;
20067;SDS011;10194;50.824;7.134;2023-02-18T15:24:48;166.10;;;137.70;;
20067;SDS011;10194;50.824;7.134;2023-02-18T15:27:19;161.40;;;128.10;;
20067;SDS011;10194;50.824;7.134;2023-02-18T15:29:49;162.80;;;133.07;;
20067;SDS011;10194;50.824;7.134;2023-02-18T15:34:48;168.50;;;141.83;;
20067;SDS011;10194;50.824;7.134;2023-02-18T15:37:16;169.23;;;146.10;;
20067;SDS011;10194;50.824;7.134;2023-02-18T15:39:42;167.97;;;143.80;;
20067;SDS011;10194;50.824;7.134;2023-02-18T15:42:29;172.37;;;149.90;;
20067;SDS011;10194;50.824;7.134;2023-02-18T15:47:50;171.30;;;149.43;;
20067;SDS011;10194;50.824;7.134;2023-02-18T15:50:24;174.10;;;140.83;;
20067;SDS011;10194;50.824;7.134;2023-02-18T15:52:56;165.13;;;138.07;;
20067;SDS011;10194;50.824;7.134;2023-02-18T15:55:32;164.40;;;137.57;;
20067;SDS011;10194;50.824;7.134;2023-02-18T15:58:04;164.00;;;136.03;;
20067;SDS011;10194;50.824;7.134;2023-02-18T16:00:39;170.13;;;146.43;;
20067;SDS011;10194;50.824;7.134;2023-02-18T16:03:14;171.40;;;148.50;;
20067;SDS011;10194;50.824;7.134;2023-02-18T16:05:47;166.87;;;139.43;;
20067;SDS011;10194;50.824;7.134;2023-02-18T16:08:15;176.50;;;155.97;;
20067;SDS011;10194;50.824;7.134;2023-02-18T16:11:04;169.97;;;147.00;;
20067;SDS011;10194;50.824;7.134;2023-02-18T16:13:35;176.20;;;156.40;;
20067;SDS011;10194;50.824;7.134;2023-02-18T16:18:53;169.20;;;146.40;;
20067;SDS011;10194;50.824;7.134;2023-02-18T16:23:50;166.43;;;135.67;;
20067;SDS011;10194;50.824;7.134;2023-02-18T16:26:38;160.83;;;128.63;;
20067;SDS011;10194;50.824;7.134;2023-02-18T16:29:11;185.47;;;165.30;;
20067;SDS011;10194;50.824;7.134;2023-02-18T16:31:40;175.57;;;151.37;;
20067;SDS011;10194;50.824;7.134;2023-02-18T16:34:06;182.00;;;149.77;;
20067;SDS011;10194;50.824;7.134;2023-02-18T16:36:33;173.63;;;148.10;;
20067;SDS011;10194;50.824;7.134;2023-02-18T16:38:59;173.93;;;153.80;;
20067;SDS011;10194;50.824;7.134;2023-02-18T16:41:26;169.77;;;148.00;;
20067;SDS011;10194;50.824;7.134;2023-02-18T16:43:53;164.63;;;136.63;;
20067;SDS011;10194;50.824;7.134;2023-02-18T16:46:20;164.70;;;133.07;;
20067;SDS011;10194;50.824;7.134;2023-02-18T16:48:53;170.30;;;141.07;;
20067;SDS011;10194;50.824;7.134;2023-02-18T16:51:21;173.13;;;144.40;;
20067;SDS011;10194;50.824;7.134;2023-02-18T16:53:50;167.63;;;138.43;;
20067;SDS011;10194;50.824;7.134;2023-02-18T16:56:20;174.03;;;148.20;;
20067;SDS011;10194;50.824;7.134;2023-02-18T16:58:49;171.67;;;142.37;;
20067;SDS011;10194;50.824;7.134;2023-02-18T17:01:23;170.17;;;143.40;;
20067;SDS011;10194;50.824;7.134;2023-02-18T17:04:02;173.60;;;149.40;;
20067;SDS011;10194;50.824;7.134;2023-02-18T17:06:30;169.80;;;140.90;;
20067;SDS011;10194;50.824;7.134;2023-02-18T17:08:56;165.50;;;137.60;;
20067;SDS011;10194;50.824;7.134;2023-02-18T17:11:23;164.60;;;134.60;;
20067;SDS011;10194;50.824;7.134;2023-02-18T17:13:55;164.77;;;131.13;;
20067;SDS011;10194;50.824;7.134;2023-02-18T17:16:25;164.23;;;131.43;;
20067;SDS011;10194;50.824;7.134;2023-02-18T17:18:51;163.97;;;131.07;;
20067;SDS011;10194;50.824;7.134;2023-02-18T17:21:19;171.70;;;143.87;;